createdAt,value
2023-04-15T00:00:57.711Z,90.36
2023-04-15T00:03:25.120Z,85.01
2023-04-15T00:05:52.385Z,83.97
2023-04-15T00:08:19.748Z,84.49
2023-04-15T00:10:46.852Z,84.42
2023-04-15T00:13:13.822Z,88.71
2023-04-15T00:15:41.140Z,87.52
2023-04-15T00:18:08.404Z,90.97
2023-04-15T00:20:35.815Z,92.69
2023-04-15T00:23:04.315Z,88.00
2023-04-15T00:25:31.787Z,90.50
2023-04-15T00:27:58.991Z,88.38
2023-04-15T00:30:26.773Z,87.77
2023-04-15T00:32:53.851Z,88.56
2023-04-15T00:35:20.996Z,86.69
2023-04-15T00:37:47.879Z,88.67
2023-04-15T00:40:17.993Z,88.75
2023-04-15T00:42:45.748Z,91.93
2023-04-15T00:45:13.161Z,88.42
2023-04-15T00:47:42.418Z,94.02
2023-04-15T00:50:10.101Z,92.69
2023-04-15T00:52:37.428Z,96.43
2023-04-15T00:55:04.917Z,92.54
2023-04-15T00:57:32.105Z,95.22
2023-04-15T00:59:59.286Z,91.53
2023-04-15T01:02:26.354Z,92.42
2023-04-15T01:04:53.359Z,89.39
2023-04-15T01:07:20.232Z,89.77
2023-04-15T01:09:48.192Z,90.40
2023-04-15T01:12:16.547Z,91.45
2023-04-15T01:14:43.557Z,90.59
2023-04-15T01:17:10.466Z,90.92
2023-04-15T01:19:37.594Z,88.81
2023-04-15T01:22:05.577Z,87.14
2023-04-15T01:24:34.195Z,87.88
2023-04-15T01:27:01.127Z,89.46
2023-04-15T01:29:28.102Z,91.43
2023-04-15T01:31:56.415Z,90.09
2023-04-15T01:34:23.387Z,85.73
2023-04-15T01:36:50.311Z,89.43
2023-04-15T01:39:17.226Z,92.96
2023-04-15T01:41:44.278Z,89.72
2023-04-15T01:44:11.281Z,91.23
2023-04-15T01:46:38.313Z,90.08
2023-04-15T01:49:05.272Z,93.35
2023-04-15T01:51:32.319Z,93.94
2023-04-15T01:53:59.226Z,92.55
2023-04-15T01:56:26.737Z,95.78
2023-04-15T01:58:53.827Z,92.44
2023-04-15T02:01:20.974Z,93.71
2023-04-15T02:03:48.371Z,90.76
2023-04-15T02:06:15.533Z,94.62
2023-04-15T02:08:42.526Z,89.08
2023-04-15T02:11:09.482Z,92.89
2023-04-15T02:13:36.533Z,91.75
2023-04-15T02:16:04.121Z,93.06
2023-04-15T02:18:31.225Z,92.08
2023-04-15T02:20:58.987Z,95.84
2023-04-15T02:23:26.039Z,96.01
2023-04-15T02:25:53.999Z,96.52
2023-04-15T02:28:22.042Z,92.92
2023-04-15T02:30:52.882Z,90.72
2023-04-15T02:33:21.475Z,92.68
2023-04-15T02:35:48.373Z,90.39
2023-04-15T02:38:17.019Z,90.30
2023-04-15T02:40:43.945Z,90.85
2023-04-15T02:43:10.823Z,89.80
2023-04-15T02:45:37.732Z,91.50
2023-04-15T02:48:06.692Z,91.29
2023-04-15T02:50:33.764Z,90.39
2023-04-15T02:53:01.774Z,89.12
2023-04-15T02:55:29.423Z,92.16
2023-04-15T02:57:58.602Z,90.87
2023-04-15T03:00:25.600Z,86.69
2023-04-15T03:02:56.787Z,85.81
2023-04-15T03:05:25.564Z,87.68
2023-04-15T03:07:53.032Z,88.47
2023-04-15T03:10:20.344Z,92.25
2023-04-15T03:12:47.261Z,92.11
2023-04-15T03:15:14.222Z,88.79
2023-04-15T03:17:41.216Z,89.71
2023-04-15T03:20:09.011Z,91.27
2023-04-15T03:22:35.937Z,92.00
2023-04-15T03:25:02.871Z,86.35
2023-04-15T03:27:29.725Z,90.74
2023-04-15T03:29:57.015Z,89.82
2023-04-15T03:32:24.021Z,88.30
2023-04-15T03:34:50.904Z,87.11
2023-04-15T03:37:17.775Z,90.46
2023-04-15T03:39:44.648Z,85.25
2023-04-15T03:42:11.469Z,92.68
2023-04-15T03:44:38.533Z,91.88
2023-04-15T03:47:05.390Z,89.16
2023-04-15T03:49:32.294Z,88.54
2023-04-15T03:51:59.876Z,86.87
2023-04-15T03:54:26.750Z,88.90
2023-04-15T03:56:53.665Z,86.86
2023-04-15T03:59:20.599Z,94.06
2023-04-15T04:01:47.618Z,90.82
2023-04-15T04:04:14.688Z,90.47
2023-04-15T04:06:41.643Z,96.18
2023-04-15T04:09:08.488Z,89.20
2023-04-15T04:11:35.271Z,90.67
2023-04-15T04:14:02.185Z,93.14
2023-04-15T04:16:29.237Z,94.16
2023-04-15T04:18:56.130Z,95.88
2023-04-15T04:21:23.162Z,95.19
2023-04-15T04:23:50.064Z,93.78
2023-04-15T04:26:16.944Z,96.96
2023-04-15T04:28:43.795Z,95.04
2023-04-15T04:31:11.067Z,99.10
2023-04-15T04:33:38.031Z,94.77
2023-04-15T04:36:05.338Z,97.39
2023-04-15T04:38:32.190Z,98.31
2023-04-15T04:40:58.873Z,98.75
2023-04-15T04:43:25.707Z,97.06
2023-04-15T04:45:52.416Z,97.23
2023-04-15T04:48:20.046Z,100.00
2023-04-15T04:50:47.268Z,99.32
2023-04-15T04:53:14.230Z,96.77
2023-04-15T04:55:41.479Z,100.00
2023-04-15T04:58:08.349Z,95.76
2023-04-15T05:00:35.230Z,97.44
2023-04-15T05:03:02.232Z,95.22
2023-04-15T05:05:29.238Z,96.16
2023-04-15T05:07:56.510Z,98.10
2023-04-15T05:10:23.418Z,94.30
2023-04-15T05:12:50.701Z,96.32
2023-04-15T05:15:17.576Z,90.27
2023-04-15T05:17:44.935Z,93.55
2023-04-15T05:20:12.615Z,90.74
2023-04-15T05:22:39.482Z,87.89
2023-04-15T05:25:06.626Z,88.94
2023-04-15T05:27:33.527Z,90.57
2023-04-15T05:30:00.672Z,93.37
2023-04-15T05:32:27.664Z,93.68
2023-04-15T05:34:54.540Z,92.03
2023-04-15T05:37:22.453Z,91.88
2023-04-15T05:39:49.298Z,93.54
2023-04-15T05:42:16.912Z,94.22
2023-04-15T05:44:43.988Z,94.01
2023-04-15T05:47:11.150Z,91.49
2023-04-15T05:49:38.034Z,90.65
2023-04-15T05:52:05.016Z,93.40
2023-04-15T05:54:31.948Z,89.00
2023-04-15T05:56:59.179Z,89.28
2023-04-15T05:59:26.197Z,85.51
2023-04-15T06:01:53.238Z,94.00
2023-04-15T06:04:20.271Z,92.99
2023-04-15T06:06:47.349Z,90.40
2023-04-15T06:09:14.229Z,88.13
2023-04-15T06:11:41.608Z,89.79
2023-04-15T06:14:08.584Z,87.63
2023-04-15T06:16:36.878Z,88.17
2023-04-15T06:19:04.151Z,93.04
2023-04-15T06:21:31.837Z,92.06
2023-04-15T06:24:01.660Z,91.92
2023-04-15T06:26:28.857Z,95.70
2023-04-15T06:28:55.951Z,94.63
2023-04-15T06:31:23.219Z,94.37
2023-04-15T06:33:50.205Z,97.43
2023-04-15T06:36:17.142Z,97.46
2023-04-15T06:38:44.148Z,93.82
2023-04-15T06:41:11.308Z,98.23
2023-04-15T06:43:38.179Z,100.00
2023-04-15T06:46:05.273Z,96.64
2023-04-15T06:48:32.392Z,97.27
2023-04-15T06:50:59.292Z,95.53
2023-04-15T06:53:28.169Z,95.77
2023-04-15T06:55:55.073Z,95.15
2023-04-15T06:58:22.314Z,94.26
2023-04-15T07:00:49.399Z,93.60
2023-04-15T07:03:16.339Z,92.61
2023-04-15T07:05:43.608Z,94.06
2023-04-15T07:08:10.614Z,91.84
2023-04-15T07:10:38.289Z,88.96
2023-04-15T07:13:05.941Z,92.08
2023-04-15T07:15:32.812Z,88.34
2023-04-15T07:17:59.714Z,88.00
2023-04-15T07:20:26.794Z,88.01
2023-04-15T07:22:54.037Z,86.49
2023-04-15T07:25:21.213Z,83.55
2023-04-15T07:27:48.123Z,86.88
2023-04-15T07:30:15.363Z,87.83
2023-04-15T07:32:42.662Z,92.54
2023-04-15T07:35:10.049Z,89.82
2023-04-15T07:37:37.411Z,86.09
2023-04-15T07:40:05.381Z,87.13
2023-04-15T07:42:32.300Z,87.01
2023-04-15T07:44:59.170Z,89.40
2023-04-15T07:47:26.509Z,90.69
2023-04-15T07:49:53.534Z,90.50
2023-04-15T07:52:20.391Z,89.94
2023-04-15T07:54:47.310Z,87.00
2023-04-15T07:57:14.231Z,86.13
2023-04-15T07:59:41.940Z,84.68
2023-04-15T08:02:09.087Z,83.89
2023-04-15T08:04:36.213Z,84.39
2023-04-15T08:07:04.411Z,82.49
2023-04-15T08:09:31.424Z,85.17
2023-04-15T08:11:58.288Z,85.67
2023-04-15T08:14:25.200Z,85.80
2023-04-15T08:16:52.058Z,85.95
2023-04-15T08:19:18.975Z,84.20
2023-04-15T08:21:45.854Z,86.31
2023-04-15T08:24:13.138Z,85.55
2023-04-15T08:26:40.044Z,85.45
2023-04-15T08:29:06.917Z,87.88
2023-04-15T08:31:34.210Z,88.98
2023-04-15T08:34:01.357Z,90.03
2023-04-15T08:36:28.681Z,90.32
2023-04-15T08:38:55.668Z,91.78
2023-04-15T08:41:24.611Z,91.91
2023-04-15T08:43:58.104Z,90.51
2023-04-15T08:46:25.717Z,90.33
2023-04-15T08:48:52.794Z,91.77
2023-04-15T08:51:20.140Z,91.63
2023-04-15T08:53:47.622Z,93.82
2023-04-15T08:56:16.968Z,92.77
2023-04-15T08:58:47.286Z,89.99
2023-04-15T09:01:14.185Z,89.99
2023-04-15T09:03:42.226Z,92.43
2023-04-15T09:06:09.206Z,89.13
2023-04-15T09:08:36.103Z,87.45
2023-04-15T09:11:06.116Z,84.12
2023-04-15T09:13:33.061Z,85.58
2023-04-15T09:16:03.922Z,82.88
2023-04-15T09:18:32.906Z,82.51
2023-04-15T09:21:16.426Z,85.13
2023-04-15T09:24:00.217Z,85.88
2023-04-15T09:26:45.573Z,84.79
2023-04-15T09:29:14.039Z,87.02
2023-04-15T09:31:41.789Z,83.83
2023-04-15T09:34:09.021Z,85.13
2023-04-15T09:36:57.038Z,83.71
2023-04-15T09:39:24.041Z,83.25
2023-04-15T09:42:07.375Z,85.56
2023-04-15T09:44:34.447Z,88.08
2023-04-15T09:47:01.909Z,87.97
2023-04-15T09:49:29.067Z,89.62
2023-04-15T09:52:05.497Z,88.08
2023-04-15T09:54:33.842Z,86.92
2023-04-15T09:57:10.471Z,85.90
2023-04-15T09:59:37.555Z,86.58
2023-04-15T10:02:10.515Z,89.54
2023-04-15T10:04:41.062Z,89.03
2023-04-15T10:07:10.013Z,87.86
2023-04-15T10:09:37.071Z,88.76
2023-04-15T10:12:05.480Z,88.83
2023-04-15T10:14:34.790Z,88.41
2023-04-15T10:17:02.867Z,86.85
2023-04-15T10:19:32.469Z,89.07
2023-04-15T10:21:59.679Z,88.62
2023-04-15T10:24:27.178Z,86.37
2023-04-15T10:26:54.461Z,85.64
2023-04-15T10:29:21.397Z,84.88
2023-04-15T10:31:48.691Z,82.68
2023-04-15T10:34:16.230Z,84.92
2023-04-15T10:36:43.165Z,85.41
2023-04-15T10:39:35.062Z,88.34
2023-04-15T10:42:33.963Z,81.07
2023-04-15T10:45:00.842Z,84.73
2023-04-15T10:47:28.750Z,77.10
2023-04-15T10:50:00.510Z,78.39
2023-04-15T10:52:28.798Z,77.64
2023-04-15T10:55:10.903Z,80.36
2023-04-15T10:57:42.132Z,78.01
2023-04-15T11:00:12.306Z,77.67
2023-04-15T11:02:43.362Z,75.18
2023-04-15T11:05:17.677Z,76.67
2023-04-15T11:07:51.753Z,77.96
2023-04-15T11:10:18.742Z,77.41
2023-04-15T11:12:46.206Z,70.53
2023-04-15T11:15:30.516Z,72.17
2023-04-15T11:17:58.311Z,68.65
2023-04-15T11:20:25.580Z,71.48
2023-04-15T11:23:08.260Z,66.13
2023-04-15T11:25:41.956Z,65.43
2023-04-15T11:28:08.978Z,70.21
2023-04-15T11:30:37.748Z,63.37
2023-04-15T11:33:09.841Z,66.68
2023-04-15T11:35:37.051Z,67.80
2023-04-15T11:38:14.438Z,67.33
2023-04-15T11:40:43.817Z,72.84
2023-04-15T11:43:12.971Z,69.84
2023-04-15T11:45:59.666Z,72.42
2023-04-15T11:48:35.123Z,73.34
2023-04-15T11:51:07.108Z,78.81
2023-04-15T11:53:41.140Z,76.23
2023-04-15T11:56:10.137Z,75.15
2023-04-15T11:58:38.371Z,78.44
2023-04-15T12:01:06.730Z,75.87
2023-04-15T12:03:44.635Z,77.43
2023-04-15T12:06:17.824Z,79.39
2023-04-15T12:09:23.469Z,73.63
2023-04-15T12:11:53.026Z,72.71
2023-04-15T12:14:29.634Z,73.35
2023-04-15T12:17:05.023Z,68.77
2023-04-15T12:19:36.022Z,68.07
2023-04-15T12:22:05.471Z,69.79
2023-04-15T12:24:36.585Z,72.26
2023-04-15T12:27:07.955Z,73.82
2023-04-15T12:29:36.860Z,76.61
2023-04-15T12:32:14.436Z,78.01
2023-04-15T12:34:45.109Z,79.86
2023-04-15T12:37:16.165Z,78.44
2023-04-15T12:39:45.171Z,78.46
2023-04-15T12:42:12.496Z,77.12
2023-04-15T12:44:39.786Z,77.78
2023-04-15T12:47:08.094Z,78.25
2023-04-15T12:49:35.025Z,75.63
2023-04-15T12:52:02.654Z,76.00
2023-04-15T12:54:30.408Z,73.69
2023-04-15T12:56:57.828Z,70.28
2023-04-15T12:59:25.157Z,71.53
2023-04-15T13:01:53.639Z,71.66
2023-04-15T13:04:21.552Z,73.45
2023-04-15T13:06:48.594Z,72.03
2023-04-15T13:09:15.920Z,73.33
2023-04-15T13:11:42.874Z,76.05
2023-04-15T13:14:11.776Z,74.37
2023-04-15T13:16:39.094Z,76.02
2023-04-15T13:19:05.991Z,71.95
2023-04-15T13:21:36.010Z,73.12
2023-04-15T13:24:04.517Z,77.23
2023-04-15T13:26:32.174Z,72.54
2023-04-15T13:28:59.523Z,64.56
2023-04-15T13:31:26.518Z,66.27
2023-04-15T13:33:53.548Z,65.48
2023-04-15T13:36:20.443Z,63.01
2023-04-15T13:38:49.711Z,61.03
2023-04-15T13:41:17.973Z,60.31
2023-04-15T13:43:44.818Z,56.78
2023-04-15T13:46:11.764Z,57.67
2023-04-15T13:48:38.716Z,57.99
2023-04-15T13:51:05.714Z,57.79
2023-04-15T13:53:33.828Z,55.14
2023-04-15T13:56:06.949Z,56.87
2023-04-15T13:58:33.900Z,56.24
2023-04-15T14:01:02.568Z,55.72
2023-04-15T14:03:31.158Z,55.06
2023-04-15T14:05:58.645Z,56.11
2023-04-15T14:08:26.039Z,54.89
2023-04-15T14:10:52.972Z,55.43
2023-04-15T14:13:19.846Z,54.06
2023-04-15T14:15:47.362Z,54.48
2023-04-15T14:18:14.286Z,53.18
2023-04-15T14:20:41.254Z,52.64
2023-04-15T14:23:08.199Z,53.42
2023-04-15T14:25:35.110Z,52.80
2023-04-15T14:28:03.661Z,49.90
2023-04-15T14:30:31.007Z,49.04
2023-04-15T14:32:57.996Z,48.97
2023-04-15T14:35:26.848Z,45.76
2023-04-15T14:37:54.588Z,47.77
2023-04-15T14:40:21.867Z,47.27
2023-04-15T14:42:48.811Z,46.96
2023-04-15T14:45:15.705Z,46.08
2023-04-15T14:47:42.689Z,46.84
2023-04-15T14:50:10.153Z,44.91
2023-04-15T14:52:39.768Z,47.79
2023-04-15T14:55:08.072Z,49.30
2023-04-15T14:57:35.022Z,48.87
2023-04-15T15:00:02.162Z,50.15
2023-04-15T15:02:38.412Z,47.36
2023-04-15T15:05:07.705Z,45.61
2023-04-15T15:07:36.213Z,49.73
2023-04-15T15:10:03.254Z,51.41
2023-04-15T15:12:30.264Z,57.87
2023-04-15T15:14:57.139Z,57.77
2023-04-15T15:17:24.099Z,60.87
2023-04-15T15:19:51.167Z,58.98
2023-04-15T15:22:20.130Z,58.17
2023-04-15T15:24:48.088Z,62.95
2023-04-15T15:27:14.996Z,64.61
2023-04-15T15:29:41.900Z,61.70
2023-04-15T15:32:08.727Z,63.37
2023-04-15T15:34:35.805Z,64.73
2023-04-15T15:37:02.708Z,67.37
2023-04-15T15:39:29.622Z,67.91
2023-04-15T15:41:56.520Z,67.13
2023-04-15T15:44:23.420Z,66.99
2023-04-15T15:46:50.923Z,61.98
2023-04-15T15:49:17.884Z,63.05
2023-04-15T15:51:46.018Z,63.78
2023-04-15T15:54:13.229Z,63.86
2023-04-15T15:56:40.227Z,64.56
2023-04-15T15:59:07.295Z,69.29
2023-04-15T16:01:34.268Z,64.20
2023-04-15T16:04:01.353Z,63.92
2023-04-15T16:06:28.491Z,67.18
2023-04-15T16:08:55.434Z,64.48
2023-04-15T16:11:22.343Z,66.15
2023-04-15T16:13:49.325Z,64.16
2023-04-15T16:16:16.250Z,62.08
2023-04-15T16:18:43.157Z,62.49
2023-04-15T16:21:10.148Z,60.63
2023-04-15T16:23:37.247Z,62.53
2023-04-15T16:26:04.199Z,61.54
2023-04-15T16:28:31.148Z,64.15
2023-04-15T16:30:58.061Z,63.14
2023-04-15T16:33:25.004Z,61.13
2023-04-15T16:35:52.123Z,66.30
2023-04-15T16:38:19.017Z,62.35
2023-04-15T16:40:46.215Z,63.33
2023-04-15T16:43:13.086Z,59.16
2023-04-15T16:45:40.003Z,62.87
2023-04-15T16:48:07.264Z,62.41
2023-04-15T16:50:34.173Z,62.77
2023-04-15T16:53:01.680Z,60.16
2023-04-15T16:55:28.589Z,60.16
2023-04-15T16:58:02.201Z,59.60
2023-04-15T17:00:31.518Z,57.68
2023-04-15T17:02:59.354Z,56.89
2023-04-15T17:05:29.634Z,58.00
2023-04-15T17:07:56.537Z,56.66
2023-04-15T17:10:23.538Z,59.04
2023-04-15T17:12:52.425Z,60.15
2023-04-15T17:15:20.427Z,59.60
2023-04-15T17:17:47.353Z,58.63
2023-04-15T17:20:14.919Z,54.58
2023-04-15T17:22:41.834Z,55.99
2023-04-15T17:25:08.890Z,57.97
2023-04-15T17:27:36.122Z,58.38
2023-04-15T17:30:02.990Z,58.31
2023-04-15T17:32:34.404Z,56.25
2023-04-15T17:35:04.459Z,58.63
2023-04-15T17:37:31.390Z,57.08
2023-04-15T17:39:58.261Z,58.46
2023-04-15T17:42:26.421Z,61.33
2023-04-15T17:44:53.349Z,59.81
2023-04-15T17:47:20.516Z,62.03
2023-04-15T17:49:47.941Z,66.16
2023-04-15T17:52:15.009Z,61.41
2023-04-15T17:54:41.955Z,60.82
2023-04-15T17:57:09.745Z,59.47
2023-04-15T17:59:36.710Z,60.12
2023-04-15T18:02:03.729Z,58.39
2023-04-15T18:04:31.053Z,58.00
2023-04-15T18:06:57.987Z,62.55
2023-04-15T18:09:24.877Z,67.18
2023-04-15T18:11:51.790Z,67.18
2023-04-15T18:14:31.152Z,65.46
2023-04-15T18:17:02.113Z,63.31
2023-04-15T18:19:30.275Z,64.10
2023-04-15T18:21:57.183Z,70.64
2023-04-15T18:24:24.120Z,69.43
2023-04-15T18:26:51.034Z,75.23
2023-04-15T18:29:18.710Z,76.00
2023-04-15T18:31:45.613Z,72.31
2023-04-15T18:34:13.099Z,75.41
2023-04-15T18:36:40.079Z,70.87
2023-04-15T18:39:07.131Z,71.93
2023-04-15T18:41:34.213Z,73.61
2023-04-15T18:44:01.257Z,73.97
2023-04-15T18:46:28.726Z,72.81
2023-04-15T18:48:55.617Z,71.46
2023-04-15T18:51:22.539Z,67.44
2023-04-15T18:53:49.502Z,65.15
2023-04-15T18:56:16.407Z,66.21
2023-04-15T18:59:26.449Z,63.69
2023-04-15T19:01:31.942Z,63.83
2023-04-15T19:03:59.128Z,64.38
2023-04-15T19:06:27.411Z,64.13
2023-04-15T19:08:54.756Z,62.93
2023-04-15T19:11:21.953Z,63.58
2023-04-15T19:13:48.891Z,61.03
2023-04-15T19:16:15.836Z,57.47
2023-04-15T19:18:43.237Z,56.72
2023-04-15T19:21:11.332Z,58.23
2023-04-15T19:23:38.445Z,57.29
2023-04-15T19:26:05.528Z,56.17
2023-04-15T19:28:32.482Z,57.52
2023-04-15T19:30:59.380Z,58.41
2023-04-15T19:33:31.256Z,58.89
2023-04-15T19:36:03.623Z,59.19
2023-04-15T19:38:31.507Z,58.71
2023-04-15T19:40:59.963Z,55.57
2023-04-15T19:43:27.377Z,55.95
2023-04-15T19:45:54.936Z,57.21
2023-04-15T19:48:23.148Z,55.84
2023-04-15T19:50:50.152Z,57.41
2023-04-15T19:53:17.257Z,59.41
2023-04-15T19:55:44.127Z,59.02
2023-04-15T19:58:11.423Z,56.15
2023-04-15T20:00:38.404Z,56.90
2023-04-15T20:03:05.887Z,58.65
2023-04-15T20:05:32.873Z,59.03
2023-04-15T20:08:01.185Z,57.82
2023-04-15T20:10:28.085Z,58.93
2023-04-15T20:12:54.941Z,59.94
2023-04-15T20:15:24.026Z,60.36
2023-04-15T20:17:51.370Z,60.16
2023-04-15T20:20:18.660Z,57.56
2023-04-15T20:22:45.710Z,56.00
2023-04-15T20:25:12.614Z,57.84
2023-04-15T20:27:39.693Z,60.04
2023-04-15T20:30:07.564Z,60.32
2023-04-15T20:32:36.241Z,58.80
2023-04-15T20:35:04.567Z,61.36
2023-04-15T20:37:33.523Z,61.72
2023-04-15T20:40:01.451Z,61.24
2023-04-15T20:42:28.799Z,59.54
2023-04-15T20:44:55.801Z,56.19
2023-04-15T20:47:22.814Z,56.38
2023-04-15T20:49:49.796Z,57.02
2023-04-15T20:52:16.780Z,59.10
2023-04-15T20:54:44.769Z,59.69
2023-04-15T20:57:11.642Z,57.46
2023-04-15T20:59:38.616Z,57.16
2023-04-15T21:02:05.796Z,60.13
2023-04-15T21:04:32.729Z,58.13
2023-04-15T21:06:59.581Z,61.30
2023-04-15T21:09:26.573Z,59.80
2023-04-15T21:12:00.997Z,61.39
2023-04-15T21:14:28.866Z,61.87
2023-04-15T21:16:57.442Z,59.84
2023-04-15T21:19:24.329Z,60.54
2023-04-15T21:21:51.181Z,62.31
2023-04-15T21:24:18.081Z,60.08
2023-04-15T21:26:44.970Z,63.00
2023-04-15T21:29:12.151Z,62.82
2023-04-15T21:31:41.012Z,62.01
2023-04-15T21:34:08.101Z,61.55
2023-04-15T21:36:35.079Z,62.14
2023-04-15T21:39:02.080Z,60.18
2023-04-15T21:41:29.026Z,60.86
2023-04-15T21:43:55.885Z,61.48
2023-04-15T21:46:25.535Z,62.47
2023-04-15T21:48:56.212Z,62.58
2023-04-15T21:51:23.140Z,61.28
2023-04-15T21:53:50.104Z,62.07
2023-04-15T21:56:16.994Z,61.50
2023-04-15T21:58:44.151Z,61.42
2023-04-15T22:01:11.124Z,60.69
2023-04-15T22:03:38.170Z,60.82
2023-04-15T22:06:05.420Z,60.47
2023-04-15T22:08:41.358Z,60.60
2023-04-15T22:11:20.735Z,61.37
2023-04-15T22:13:47.685Z,60.27
2023-04-15T22:16:14.634Z,65.18
2023-04-15T22:18:41.543Z,64.23
2023-04-15T22:21:08.683Z,62.25
2023-04-15T22:23:35.622Z,56.69
2023-04-15T22:26:02.499Z,54.07
2023-04-15T22:28:29.401Z,55.48
2023-04-15T22:30:58.235Z,57.87
2023-04-15T22:33:25.246Z,56.06
2023-04-15T22:35:52.088Z,57.52
2023-04-15T22:38:18.959Z,59.64
2023-04-15T22:40:49.049Z,61.27
2023-04-15T22:43:15.946Z,61.20
2023-04-15T22:45:42.835Z,60.20
2023-04-15T22:48:09.667Z,59.84
2023-04-15T22:50:38.094Z,60.02
2023-04-15T22:53:04.940Z,61.59
2023-04-15T22:55:31.821Z,62.25
2023-04-15T22:57:58.692Z,60.87
2023-04-15T23:00:25.591Z,62.90
2023-04-15T23:02:52.569Z,64.95
2023-04-15T23:05:19.665Z,65.05
2023-04-15T23:07:46.678Z,67.66
2023-04-15T23:10:13.521Z,65.18
2023-04-15T23:12:40.365Z,64.44
2023-04-15T23:15:07.919Z,64.12
2023-04-15T23:17:35.037Z,63.29
2023-04-15T23:20:01.957Z,66.36
2023-04-15T23:22:28.836Z,69.53
2023-04-15T23:24:55.718Z,67.00
2023-04-15T23:27:23.031Z,65.73
2023-04-15T23:29:49.944Z,64.15
2023-04-15T23:32:16.864Z,63.51
2023-04-15T23:34:43.722Z,61.60
2023-04-15T23:37:10.668Z,63.12
2023-04-15T23:39:37.509Z,61.46
2023-04-15T23:42:04.497Z,60.25
2023-04-15T23:44:31.393Z,59.90
2023-04-15T23:46:58.316Z,59.98
2023-04-15T23:49:25.226Z,60.47
2023-04-15T23:51:52.101Z,60.37
2023-04-15T23:54:18.967Z,60.60
2023-04-15T23:56:46.349Z,60.25
2023-04-15T23:59:13.237Z,61.20
